sensor_id;sensor_type;location;lat;lon;timestamp;P1;durP1;ratioP1;P2;durP2;ratioP2
72728;SDS011;60843;52.062;4.508;2022-11-20T00:01:09;16.00;;;7.13;;
72728;SDS011;60843;52.062;4.508;2022-11-20T00:03:37;14.23;;;6.65;;
72728;SDS011;60843;52.062;4.508;2022-11-20T00:06:07;12.57;;;5.97;;
72728;SDS011;60843;52.062;4.508;2022-11-20T00:08:33;14.75;;;6.68;;
72728;SDS011;60843;52.062;4.508;2022-11-20T00:11:03;16.50;;;6.15;;
72728;SDS011;60843;52.062;4.508;2022-11-20T00:13:32;14.77;;;7.57;;
72728;SDS011;60843;52.062;4.508;2022-11-20T00:15:58;15.82;;;6.85;;
72728;SDS011;60843;52.062;4.508;2022-11-20T00:18:24;18.55;;;8.85;;
72728;SDS011;60843;52.062;4.508;2022-11-20T00:20:50;18.85;;;7.85;;
72728;SDS011;60843;52.062;4.508;2022-11-20T00:23:16;17.48;;;7.22;;
72728;SDS011;60843;52.062;4.508;2022-11-20T00:25:41;13.87;;;6.13;;
72728;SDS011;60843;52.062;4.508;2022-11-20T00:28:06;13.83;;;6.70;;
72728;SDS011;60843;52.062;4.508;2022-11-20T00:30:32;16.67;;;6.90;;
72728;SDS011;60843;52.062;4.508;2022-11-20T00:32:57;13.63;;;6.77;;
72728;SDS011;60843;52.062;4.508;2022-11-20T00:35:23;14.80;;;7.70;;
72728;SDS011;60843;52.062;4.508;2022-11-20T00:37:48;14.25;;;7.07;;
72728;SDS011;60843;52.062;4.508;2022-11-20T00:40:13;18.27;;;7.13;;
72728;SDS011;60843;52.062;4.508;2022-11-20T00:42:39;13.02;;;5.72;;
72728;SDS011;60843;52.062;4.508;2022-11-20T00:45:04;13.63;;;6.40;;
72728;SDS011;60843;52.062;4.508;2022-11-20T00:47:30;13.63;;;6.82;;
72728;SDS011;60843;52.062;4.508;2022-11-20T00:49:56;13.10;;;6.57;;
72728;SDS011;60843;52.062;4.508;2022-11-20T00:52:21;13.77;;;6.82;;
72728;SDS011;60843;52.062;4.508;2022-11-20T00:54:47;16.02;;;6.38;;
72728;SDS011;60843;52.062;4.508;2022-11-20T00:57:12;12.23;;;6.18;;
72728;SDS011;60843;52.062;4.508;2022-11-20T00:59:37;13.18;;;6.75;;
72728;SDS011;60843;52.062;4.508;2022-11-20T01:02:03;13.13;;;6.10;;
72728;SDS011;60843;52.062;4.508;2022-11-20T01:04:28;13.57;;;6.63;;
72728;SDS011;60843;52.062;4.508;2022-11-20T01:06:53;15.63;;;7.70;;
72728;SDS011;60843;52.062;4.508;2022-11-20T01:09:19;13.40;;;6.77;;
72728;SDS011;60843;52.062;4.508;2022-11-20T01:11:44;16.23;;;7.40;;
72728;SDS011;60843;52.062;4.508;2022-11-20T01:14:11;15.45;;;6.93;;
72728;SDS011;60843;52.062;4.508;2022-11-20T01:16:39;14.55;;;6.72;;
72728;SDS011;60843;52.062;4.508;2022-11-20T01:19:07;14.95;;;8.07;;
72728;SDS011;60843;52.062;4.508;2022-11-20T01:21:36;14.98;;;7.15;;
72728;SDS011;60843;52.062;4.508;2022-11-20T01:24:03;13.05;;;6.72;;
72728;SDS011;60843;52.062;4.508;2022-11-20T01:26:30;14.55;;;6.28;;
72728;SDS011;60843;52.062;4.508;2022-11-20T01:28:58;14.77;;;7.10;;
72728;SDS011;60843;52.062;4.508;2022-11-20T01:31:25;13.82;;;7.00;;
72728;SDS011;60843;52.062;4.508;2022-11-20T01:33:56;16.55;;;7.13;;
72728;SDS011;60843;52.062;4.508;2022-11-20T01:36:23;20.80;;;8.68;;
72728;SDS011;60843;52.062;4.508;2022-11-20T01:38:53;16.00;;;8.38;;
72728;SDS011;60843;52.062;4.508;2022-11-20T01:41:20;17.52;;;7.75;;
72728;SDS011;60843;52.062;4.508;2022-11-20T01:44:04;16.02;;;6.75;;
72728;SDS011;60843;52.062;4.508;2022-11-20T01:46:31;14.93;;;7.70;;
72728;SDS011;60843;52.062;4.508;2022-11-20T01:48:58;17.65;;;7.55;;
72728;SDS011;60843;52.062;4.508;2022-11-20T01:51:44;16.77;;;6.72;;
72728;SDS011;60843;52.062;4.508;2022-11-20T01:54:14;13.82;;;6.45;;
72728;SDS011;60843;52.062;4.508;2022-11-20T01:56:46;14.48;;;6.35;;
72728;SDS011;60843;52.062;4.508;2022-11-20T01:59:13;14.65;;;7.13;;
72728;SDS011;60843;52.062;4.508;2022-11-20T02:01:40;15.32;;;6.70;;
72728;SDS011;60843;52.062;4.508;2022-11-20T02:04:06;14.73;;;6.78;;
72728;SDS011;60843;52.062;4.508;2022-11-20T02:06:39;16.00;;;6.35;;
72728;SDS011;60843;52.062;4.508;2022-11-20T02:09:08;14.10;;;7.45;;
72728;SDS011;60843;52.062;4.508;2022-11-20T02:11:33;13.57;;;6.72;;
72728;SDS011;60843;52.062;4.508;2022-11-20T02:13:58;15.37;;;6.70;;
72728;SDS011;60843;52.062;4.508;2022-11-20T02:16:28;13.13;;;6.78;;
72728;SDS011;60843;52.062;4.508;2022-11-20T02:18:56;14.00;;;7.03;;
72728;SDS011;60843;52.062;4.508;2022-11-20T02:21:27;16.00;;;7.82;;
72728;SDS011;60843;52.062;4.508;2022-11-20T02:24:14;15.75;;;7.45;;
72728;SDS011;60843;52.062;4.508;2022-11-20T02:26:43;15.63;;;7.38;;
72728;SDS011;60843;52.062;4.508;2022-11-20T02:29:19;13.25;;;6.03;;
72728;SDS011;60843;52.062;4.508;2022-11-20T02:31:49;16.35;;;7.07;;
72728;SDS011;60843;52.062;4.508;2022-11-20T02:34:15;15.23;;;7.55;;
72728;SDS011;60843;52.062;4.508;2022-11-20T02:36:40;17.70;;;7.57;;
72728;SDS011;60843;52.062;4.508;2022-11-20T02:39:06;17.63;;;8.48;;
72728;SDS011;60843;52.062;4.508;2022-11-20T02:41:36;15.73;;;7.60;;
72728;SDS011;60843;52.062;4.508;2022-11-20T02:44:02;17.45;;;7.82;;
72728;SDS011;60843;52.062;4.508;2022-11-20T02:46:28;15.00;;;7.60;;
72728;SDS011;60843;52.062;4.508;2022-11-20T02:48:54;15.40;;;7.40;;
72728;SDS011;60843;52.062;4.508;2022-11-20T02:51:19;16.23;;;6.65;;
72728;SDS011;60843;52.062;4.508;2022-11-20T02:53:45;16.60;;;7.63;;
72728;SDS011;60843;52.062;4.508;2022-11-20T02:56:10;15.27;;;6.97;;
72728;SDS011;60843;52.062;4.508;2022-11-20T02:58:35;15.17;;;7.67;;
72728;SDS011;60843;52.062;4.508;2022-11-20T03:01:01;15.50;;;6.67;;
72728;SDS011;60843;52.062;4.508;2022-11-20T03:03:26;15.00;;;7.23;;
72728;SDS011;60843;52.062;4.508;2022-11-20T03:05:51;17.60;;;8.43;;
72728;SDS011;60843;52.062;4.508;2022-11-20T03:08:17;15.15;;;7.80;;
72728;SDS011;60843;52.062;4.508;2022-11-20T03:10:42;15.30;;;7.27;;
72728;SDS011;60843;52.062;4.508;2022-11-20T03:13:07;17.13;;;8.10;;
72728;SDS011;60843;52.062;4.508;2022-11-20T03:15:33;14.03;;;6.77;;
72728;SDS011;60843;52.062;4.508;2022-11-20T03:17:58;12.93;;;6.40;;
72728;SDS011;60843;52.062;4.508;2022-11-20T03:20:23;13.50;;;6.77;;
72728;SDS011;60843;52.062;4.508;2022-11-20T03:22:49;16.67;;;7.63;;
72728;SDS011;60843;52.062;4.508;2022-11-20T03:25:14;15.00;;;7.55;;
72728;SDS011;60843;52.062;4.508;2022-11-20T03:27:40;15.32;;;7.75;;
72728;SDS011;60843;52.062;4.508;2022-11-20T03:30:05;14.32;;;6.97;;
72728;SDS011;60843;52.062;4.508;2022-11-20T03:32:31;13.40;;;6.25;;
72728;SDS011;60843;52.062;4.508;2022-11-20T03:34:56;14.27;;;6.97;;
72728;SDS011;60843;52.062;4.508;2022-11-20T03:37:22;18.03;;;7.67;;
72728;SDS011;60843;52.062;4.508;2022-11-20T03:39:47;13.50;;;6.18;;
72728;SDS011;60843;52.062;4.508;2022-11-20T03:42:12;14.50;;;6.57;;
72728;SDS011;60843;52.062;4.508;2022-11-20T03:44:57;15.65;;;7.38;;
72728;SDS011;60843;52.062;4.508;2022-11-20T03:47:22;15.97;;;7.17;;
72728;SDS011;60843;52.062;4.508;2022-11-20T03:49:47;12.40;;;6.80;;
72728;SDS011;60843;52.062;4.508;2022-11-20T03:52:12;13.83;;;6.70;;
72728;SDS011;60843;52.062;4.508;2022-11-20T03:54:38;15.35;;;7.68;;
72728;SDS011;60843;52.062;4.508;2022-11-20T03:57:03;16.33;;;7.47;;
72728;SDS011;60843;52.062;4.508;2022-11-20T03:59:29;16.38;;;7.50;;
72728;SDS011;60843;52.062;4.508;2022-11-20T04:01:54;15.60;;;7.30;;
72728;SDS011;60843;52.062;4.508;2022-11-20T04:04:20;13.53;;;6.57;;
72728;SDS011;60843;52.062;4.508;2022-11-20T04:06:45;16.48;;;7.60;;
72728;SDS011;60843;52.062;4.508;2022-11-20T04:09:10;13.30;;;6.70;;
72728;SDS011;60843;52.062;4.508;2022-11-20T04:11:36;15.25;;;6.30;;
72728;SDS011;60843;52.062;4.508;2022-11-20T04:14:03;14.82;;;6.72;;
72728;SDS011;60843;52.062;4.508;2022-11-20T04:16:30;16.83;;;7.10;;
72728;SDS011;60843;52.062;4.508;2022-11-20T04:18:58;16.23;;;7.50;;
72728;SDS011;60843;52.062;4.508;2022-11-20T04:21:24;16.63;;;6.85;;
72728;SDS011;60843;52.062;4.508;2022-11-20T04:23:51;17.88;;;7.18;;
72728;SDS011;60843;52.062;4.508;2022-11-20T04:26:17;16.08;;;6.93;;
72728;SDS011;60843;52.062;4.508;2022-11-20T04:28:43;14.27;;;7.32;;
72728;SDS011;60843;52.062;4.508;2022-11-20T04:31:09;15.63;;;7.47;;
72728;SDS011;60843;52.062;4.508;2022-11-20T04:33:36;14.68;;;6.03;;
72728;SDS011;60843;52.062;4.508;2022-11-20T04:36:03;17.08;;;7.10;;
72728;SDS011;60843;52.062;4.508;2022-11-20T04:38:30;14.15;;;6.47;;
72728;SDS011;60843;52.062;4.508;2022-11-20T04:40:56;15.50;;;6.83;;
72728;SDS011;60843;52.062;4.508;2022-11-20T04:45:50;10.83;;;5.30;;
72728;SDS011;60843;52.062;4.508;2022-11-20T04:48:17;14.10;;;6.70;;
72728;SDS011;60843;52.062;4.508;2022-11-20T04:50:42;15.47;;;7.13;;
72728;SDS011;60843;52.062;4.508;2022-11-20T04:53:07;17.40;;;6.27;;
72728;SDS011;60843;52.062;4.508;2022-11-20T04:55:33;18.33;;;7.85;;
72728;SDS011;60843;52.062;4.508;2022-11-20T04:57:58;15.77;;;7.47;;
72728;SDS011;60843;52.062;4.508;2022-11-20T05:00:23;14.93;;;7.03;;
72728;SDS011;60843;52.062;4.508;2022-11-20T05:02:49;15.98;;;7.53;;
72728;SDS011;60843;52.062;4.508;2022-11-20T05:05:14;14.70;;;6.53;;
72728;SDS011;60843;52.062;4.508;2022-11-20T05:07:40;13.15;;;6.57;;
72728;SDS011;60843;52.062;4.508;2022-11-20T05:10:05;11.73;;;6.17;;
72728;SDS011;60843;52.062;4.508;2022-11-20T05:12:31;14.80;;;6.75;;
72728;SDS011;60843;52.062;4.508;2022-11-20T05:14:56;14.15;;;6.80;;
72728;SDS011;60843;52.062;4.508;2022-11-20T05:17:23;17.75;;;7.00;;
72728;SDS011;60843;52.062;4.508;2022-11-20T05:19:48;15.40;;;7.05;;
72728;SDS011;60843;52.062;4.508;2022-11-20T05:22:14;14.20;;;6.87;;
72728;SDS011;60843;52.062;4.508;2022-11-20T05:24:39;15.03;;;6.20;;
72728;SDS011;60843;52.062;4.508;2022-11-20T05:27:04;17.77;;;8.63;;
72728;SDS011;60843;52.062;4.508;2022-11-20T05:29:30;17.30;;;7.78;;
72728;SDS011;60843;52.062;4.508;2022-11-20T05:31:55;15.95;;;6.72;;
72728;SDS011;60843;52.062;4.508;2022-11-20T05:34:21;12.20;;;6.90;;
72728;SDS011;60843;52.062;4.508;2022-11-20T05:36:46;15.23;;;6.53;;
72728;SDS011;60843;52.062;4.508;2022-11-20T05:39:11;14.07;;;6.20;;
72728;SDS011;60843;52.062;4.508;2022-11-20T05:41:37;16.63;;;7.13;;
72728;SDS011;60843;52.062;4.508;2022-11-20T05:44:02;15.03;;;7.50;;
72728;SDS011;60843;52.062;4.508;2022-11-20T05:46:28;12.82;;;6.47;;
72728;SDS011;60843;52.062;4.508;2022-11-20T05:48:53;14.82;;;7.15;;
72728;SDS011;60843;52.062;4.508;2022-11-20T05:51:19;14.50;;;7.03;;
72728;SDS011;60843;52.062;4.508;2022-11-20T05:53:44;13.15;;;6.65;;
72728;SDS011;60843;52.062;4.508;2022-11-20T05:56:11;14.80;;;6.30;;
72728;SDS011;60843;52.062;4.508;2022-11-20T05:58:38;14.38;;;7.45;;
72728;SDS011;60843;52.062;4.508;2022-11-20T06:01:07;18.25;;;6.28;;
72728;SDS011;60843;52.062;4.508;2022-11-20T06:03:43;13.57;;;6.75;;
72728;SDS011;60843;52.062;4.508;2022-11-20T06:06:11;15.43;;;7.07;;
72728;SDS011;60843;52.062;4.508;2022-11-20T06:08:36;14.95;;;6.65;;
72728;SDS011;60843;52.062;4.508;2022-11-20T06:11:05;15.43;;;5.93;;
72728;SDS011;60843;52.062;4.508;2022-11-20T06:13:32;18.63;;;7.80;;
72728;SDS011;60843;52.062;4.508;2022-11-20T06:15:57;15.25;;;7.32;;
72728;SDS011;60843;52.062;4.508;2022-11-20T06:18:22;14.63;;;6.68;;
72728;SDS011;60843;52.062;4.508;2022-11-20T06:20:48;15.63;;;7.30;;
72728;SDS011;60843;52.062;4.508;2022-11-20T06:23:13;15.63;;;6.73;;
72728;SDS011;60843;52.062;4.508;2022-11-20T06:25:39;14.83;;;6.67;;
72728;SDS011;60843;52.062;4.508;2022-11-20T06:28:05;16.58;;;7.53;;
72728;SDS011;60843;52.062;4.508;2022-11-20T06:30:31;16.25;;;7.40;;
72728;SDS011;60843;52.062;4.508;2022-11-20T06:32:56;15.40;;;7.32;;
72728;SDS011;60843;52.062;4.508;2022-11-20T06:35:22;14.45;;;7.68;;
72728;SDS011;60843;52.062;4.508;2022-11-20T06:37:47;15.07;;;6.80;;
72728;SDS011;60843;52.062;4.508;2022-11-20T06:40:12;15.53;;;7.53;;
72728;SDS011;60843;52.062;4.508;2022-11-20T06:42:38;16.60;;;7.90;;
72728;SDS011;60843;52.062;4.508;2022-11-20T06:45:03;18.67;;;7.50;;
72728;SDS011;60843;52.062;4.508;2022-11-20T06:47:29;17.30;;;8.02;;
72728;SDS011;60843;52.062;4.508;2022-11-20T06:49:54;13.90;;;6.68;;
72728;SDS011;60843;52.062;4.508;2022-11-20T06:52:19;15.00;;;6.97;;
72728;SDS011;60843;52.062;4.508;2022-11-20T06:54:45;16.27;;;7.07;;
72728;SDS011;60843;52.062;4.508;2022-11-20T06:57:10;14.77;;;7.53;;
72728;SDS011;60843;52.062;4.508;2022-11-20T06:59:35;16.40;;;6.90;;
72728;SDS011;60843;52.062;4.508;2022-11-20T07:02:01;18.23;;;7.67;;
72728;SDS011;60843;52.062;4.508;2022-11-20T07:04:26;13.33;;;7.17;;
72728;SDS011;60843;52.062;4.508;2022-11-20T07:06:51;18.27;;;7.43;;
72728;SDS011;60843;52.062;4.508;2022-11-20T07:09:16;20.60;;;8.73;;
72728;SDS011;60843;52.062;4.508;2022-11-20T07:11:42;19.00;;;7.90;;
72728;SDS011;60843;52.062;4.508;2022-11-20T07:14:07;18.00;;;8.07;;
72728;SDS011;60843;52.062;4.508;2022-11-20T07:16:32;18.30;;;8.00;;
72728;SDS011;60843;52.062;4.508;2022-11-20T07:18:58;17.10;;;8.07;;
72728;SDS011;60843;52.062;4.508;2022-11-20T07:21:23;16.73;;;7.17;;
72728;SDS011;60843;52.062;4.508;2022-11-20T07:23:48;16.23;;;7.83;;
72728;SDS011;60843;52.062;4.508;2022-11-20T07:26:14;15.63;;;6.80;;
72728;SDS011;60843;52.062;4.508;2022-11-20T07:28:43;17.38;;;8.00;;
72728;SDS011;60843;52.062;4.508;2022-11-20T07:31:09;16.40;;;7.80;;
72728;SDS011;60843;52.062;4.508;2022-11-20T07:33:34;18.27;;;7.67;;
72728;SDS011;60843;52.062;4.508;2022-11-20T07:35:59;15.63;;;8.00;;
72728;SDS011;60843;52.062;4.508;2022-11-20T07:38:25;17.77;;;8.77;;
72728;SDS011;60843;52.062;4.508;2022-11-20T07:40:53;16.03;;;7.50;;
72728;SDS011;60843;52.062;4.508;2022-11-20T07:43:20;19.88;;;7.28;;
72728;SDS011;60843;52.062;4.508;2022-11-20T07:45:45;18.77;;;8.50;;
72728;SDS011;60843;52.062;4.508;2022-11-20T07:48:10;19.03;;;8.57;;
72728;SDS011;60843;52.062;4.508;2022-11-20T07:50:36;15.75;;;7.20;;
72728;SDS011;60843;52.062;4.508;2022-11-20T07:53:02;19.40;;;8.57;;
72728;SDS011;60843;52.062;4.508;2022-11-20T07:55:30;16.58;;;8.35;;
72728;SDS011;60843;52.062;4.508;2022-11-20T07:57:56;20.48;;;8.15;;
72728;SDS011;60843;52.062;4.508;2022-11-20T08:00:24;19.20;;;9.25;;
72728;SDS011;60843;52.062;4.508;2022-11-20T08:02:50;17.17;;;8.45;;
72728;SDS011;60843;52.062;4.508;2022-11-20T08:05:16;15.90;;;7.75;;
72728;SDS011;60843;52.062;4.508;2022-11-20T08:07:42;17.63;;;8.95;;
72728;SDS011;60843;52.062;4.508;2022-11-20T08:10:08;16.65;;;8.60;;
72728;SDS011;60843;52.062;4.508;2022-11-20T08:12:35;15.10;;;7.20;;
72728;SDS011;60843;52.062;4.508;2022-11-20T08:15:19;16.15;;;8.27;;
72728;SDS011;60843;52.062;4.508;2022-11-20T08:17:45;17.90;;;8.60;;
72728;SDS011;60843;52.062;4.508;2022-11-20T08:20:10;17.30;;;7.47;;
72728;SDS011;60843;52.062;4.508;2022-11-20T08:22:36;17.50;;;8.57;;
72728;SDS011;60843;52.062;4.508;2022-11-20T08:25:01;16.77;;;7.53;;
72728;SDS011;60843;52.062;4.508;2022-11-20T08:27:26;18.03;;;8.33;;
72728;SDS011;60843;52.062;4.508;2022-11-20T08:29:51;14.93;;;8.33;;
72728;SDS011;60843;52.062;4.508;2022-11-20T08:32:17;21.60;;;9.20;;
72728;SDS011;60843;52.062;4.508;2022-11-20T08:34:42;14.63;;;7.87;;
72728;SDS011;60843;52.062;4.508;2022-11-20T08:37:07;19.43;;;8.97;;
72728;SDS011;60843;52.062;4.508;2022-11-20T08:39:33;20.77;;;8.70;;
72728;SDS011;60843;52.062;4.508;2022-11-20T08:41:58;21.83;;;9.73;;
72728;SDS011;60843;52.062;4.508;2022-11-20T08:44:23;15.70;;;8.02;;
72728;SDS011;60843;52.062;4.508;2022-11-20T08:46:49;19.77;;;9.20;;
72728;SDS011;60843;52.062;4.508;2022-11-20T08:49:14;18.00;;;9.23;;
72728;SDS011;60843;52.062;4.508;2022-11-20T08:51:40;17.83;;;9.70;;
72728;SDS011;60843;52.062;4.508;2022-11-20T08:54:06;20.58;;;9.48;;
72728;SDS011;60843;52.062;4.508;2022-11-20T08:56:31;21.15;;;10.05;;
72728;SDS011;60843;52.062;4.508;2022-11-20T08:58:57;16.88;;;8.70;;
72728;SDS011;60843;52.062;4.508;2022-11-20T09:01:24;16.90;;;9.18;;
72728;SDS011;60843;52.062;4.508;2022-11-20T09:03:50;18.83;;;9.15;;
72728;SDS011;60843;52.062;4.508;2022-11-20T09:06:16;19.03;;;9.37;;
72728;SDS011;60843;52.062;4.508;2022-11-20T09:08:41;20.35;;;9.18;;
72728;SDS011;60843;52.062;4.508;2022-11-20T09:11:07;19.00;;;9.25;;
72728;SDS011;60843;52.062;4.508;2022-11-20T09:13:33;17.67;;;8.93;;
72728;SDS011;60843;52.062;4.508;2022-11-20T09:16:00;18.67;;;9.45;;
72728;SDS011;60843;52.062;4.508;2022-11-20T09:18:29;21.35;;;10.32;;
72728;SDS011;60843;52.062;4.508;2022-11-20T09:20:57;37.58;;;10.57;;
72728;SDS011;60843;52.062;4.508;2022-11-20T09:23:23;31.50;;;10.95;;
72728;SDS011;60843;52.062;4.508;2022-11-20T09:25:49;17.88;;;9.80;;
72728;SDS011;60843;52.062;4.508;2022-11-20T09:28:15;19.40;;;9.88;;
72728;SDS011;60843;52.062;4.508;2022-11-20T09:30:41;50.95;;;12.02;;
72728;SDS011;60843;52.062;4.508;2022-11-20T09:33:06;20.63;;;9.40;;
72728;SDS011;60843;52.062;4.508;2022-11-20T09:35:32;19.58;;;8.57;;
72728;SDS011;60843;52.062;4.508;2022-11-20T09:38:03;18.15;;;9.90;;
72728;SDS011;60843;52.062;4.508;2022-11-20T09:40:29;21.70;;;10.15;;
72728;SDS011;60843;52.062;4.508;2022-11-20T09:42:56;19.97;;;9.03;;
72728;SDS011;60843;52.062;4.508;2022-11-20T09:45:50;18.83;;;10.00;;
72728;SDS011;60843;52.062;4.508;2022-11-20T09:48:24;20.10;;;8.82;;
72728;SDS011;60843;52.062;4.508;2022-11-20T09:56:33;23.55;;;10.25;;
72728;SDS011;60843;52.062;4.508;2022-11-20T09:58:59;18.77;;;10.43;;
72728;SDS011;60843;52.062;4.508;2022-11-20T10:01:29;23.90;;;10.20;;
72728;SDS011;60843;52.062;4.508;2022-11-20T10:06:41;22.13;;;10.20;;
72728;SDS011;60843;52.062;4.508;2022-11-20T10:09:31;21.13;;;10.30;;
72728;SDS011;60843;52.062;4.508;2022-11-20T10:12:05;20.85;;;11.02;;
72728;SDS011;60843;52.062;4.508;2022-11-20T10:20:40;21.55;;;10.18;;
72728;SDS011;60843;52.062;4.508;2022-11-20T10:25:39;20.52;;;10.48;;
72728;SDS011;60843;52.062;4.508;2022-11-20T10:30:46;21.17;;;9.18;;
72728;SDS011;60843;52.062;4.508;2022-11-20T10:33:23;21.55;;;11.20;;
72728;SDS011;60843;52.062;4.508;2022-11-20T10:38:50;22.75;;;10.32;;
72728;SDS011;60843;52.062;4.508;2022-11-20T10:41:19;20.80;;;10.32;;
72728;SDS011;60843;52.062;4.508;2022-11-20T10:43:56;27.85;;;11.32;;
72728;SDS011;60843;52.062;4.508;2022-11-20T10:46:23;21.67;;;10.57;;
72728;SDS011;60843;52.062;4.508;2022-11-20T10:48:50;25.60;;;11.40;;
72728;SDS011;60843;52.062;4.508;2022-11-20T10:56:53;21.92;;;10.77;;
72728;SDS011;60843;52.062;4.508;2022-11-20T11:04:57;24.02;;;11.05;;
72728;SDS011;60843;52.062;4.508;2022-11-20T11:07:24;28.58;;;11.85;;
72728;SDS011;60843;52.062;4.508;2022-11-20T11:09:53;27.27;;;12.13;;
72728;SDS011;60843;52.062;4.508;2022-11-20T11:12:20;24.55;;;11.98;;
72728;SDS011;60843;52.062;4.508;2022-11-20T11:14:48;26.33;;;11.57;;
72728;SDS011;60843;52.062;4.508;2022-11-20T11:17:27;24.25;;;11.38;;
72728;SDS011;60843;52.062;4.508;2022-11-20T11:20:05;23.42;;;11.98;;
72728;SDS011;60843;52.062;4.508;2022-11-20T11:22:48;25.02;;;11.02;;
72728;SDS011;60843;52.062;4.508;2022-11-20T11:27:46;21.93;;;10.53;;
72728;SDS011;60843;52.062;4.508;2022-11-20T11:30:14;23.58;;;11.25;;
72728;SDS011;60843;52.062;4.508;2022-11-20T11:32:40;27.73;;;12.80;;
72728;SDS011;60843;52.062;4.508;2022-11-20T11:35:11;45.78;;;15.45;;
72728;SDS011;60843;52.062;4.508;2022-11-20T11:37:46;27.83;;;13.35;;
72728;SDS011;60843;52.062;4.508;2022-11-20T11:40:13;27.25;;;13.32;;
72728;SDS011;60843;52.062;4.508;2022-11-20T11:42:42;19.98;;;10.27;;
72728;SDS011;60843;52.062;4.508;2022-11-20T11:45:11;25.25;;;13.38;;
72728;SDS011;60843;52.062;4.508;2022-11-20T11:52:50;31.80;;;15.00;;
72728;SDS011;60843;52.062;4.508;2022-11-20T11:55:36;27.30;;;12.15;;
72728;SDS011;60843;52.062;4.508;2022-11-20T12:03:39;23.80;;;12.02;;
72728;SDS011;60843;52.062;4.508;2022-11-20T12:06:11;26.10;;;12.75;;
72728;SDS011;60843;52.062;4.508;2022-11-20T12:08:53;23.52;;;11.57;;
72728;SDS011;60843;52.062;4.508;2022-11-20T12:16:49;32.00;;;13.15;;
72728;SDS011;60843;52.062;4.508;2022-11-20T12:19:16;26.42;;;11.68;;
72728;SDS011;60843;52.062;4.508;2022-11-20T12:24:57;24.45;;;11.32;;
72728;SDS011;60843;52.062;4.508;2022-11-20T12:37:41;29.13;;;13.80;;
72728;SDS011;60843;52.062;4.508;2022-11-20T12:45:58;30.88;;;12.95;;
72728;SDS011;60843;52.062;4.508;2022-11-20T12:54:29;27.52;;;12.43;;
72728;SDS011;60843;52.062;4.508;2022-11-20T13:02:37;32.90;;;14.02;;
72728;SDS011;60843;52.062;4.508;2022-11-20T13:07:46;33.50;;;13.07;;
72728;SDS011;60843;52.062;4.508;2022-11-20T13:10:46;33.45;;;14.43;;
72728;SDS011;60843;52.062;4.508;2022-11-20T13:15:50;38.70;;;15.30;;
72728;SDS011;60843;52.062;4.508;2022-11-20T13:18:19;33.65;;;13.73;;
72728;SDS011;60843;52.062;4.508;2022-11-20T13:20:45;35.95;;;14.27;;
72728;SDS011;60843;52.062;4.508;2022-11-20T13:23:11;27.50;;;12.32;;
72728;SDS011;60843;52.062;4.508;2022-11-20T13:25:48;39.03;;;15.23;;
72728;SDS011;60843;52.062;4.508;2022-11-20T13:30:52;27.73;;;12.13;;
72728;SDS011;60843;52.062;4.508;2022-11-20T13:33:22;36.92;;;14.02;;
72728;SDS011;60843;52.062;4.508;2022-11-20T13:36:05;29.15;;;13.18;;
72728;SDS011;60843;52.062;4.508;2022-11-20T13:38:48;37.72;;;16.98;;
72728;SDS011;60843;52.062;4.508;2022-11-20T13:41:25;35.60;;;14.20;;
72728;SDS011;60843;52.062;4.508;2022-11-20T13:46:38;35.17;;;14.52;;
72728;SDS011;60843;52.062;4.508;2022-11-20T13:51:41;33.00;;;13.80;;
72728;SDS011;60843;52.062;4.508;2022-11-20T13:59:51;39.33;;;14.05;;
72728;SDS011;60843;52.062;4.508;2022-11-20T14:02:23;36.33;;;14.82;;
72728;SDS011;60843;52.062;4.508;2022-11-20T14:04:52;40.92;;;15.38;;
72728;SDS011;60843;52.062;4.508;2022-11-20T14:07:20;43.40;;;17.00;;
72728;SDS011;60843;52.062;4.508;2022-11-20T14:09:51;34.35;;;13.15;;
72728;SDS011;60843;52.062;4.508;2022-11-20T14:12:18;41.22;;;15.70;;
72728;SDS011;60843;52.062;4.508;2022-11-20T14:14:49;39.58;;;15.48;;
72728;SDS011;60843;52.062;4.508;2022-11-20T14:17:35;29.13;;;10.45;;
72728;SDS011;60843;52.062;4.508;2022-11-20T14:20:05;39.25;;;15.68;;
72728;SDS011;60843;52.062;4.508;2022-11-20T14:22:32;34.92;;;15.05;;
72728;SDS011;60843;52.062;4.508;2022-11-20T14:25:40;35.97;;;14.40;;
72728;SDS011;60843;52.062;4.508;2022-11-20T14:27:50;40.55;;;15.10;;
72728;SDS011;60843;52.062;4.508;2022-11-20T14:30:19;36.70;;;15.57;;
72728;SDS011;60843;52.062;4.508;2022-11-20T14:32:46;43.33;;;16.55;;
72728;SDS011;60843;52.062;4.508;2022-11-20T14:35:34;44.70;;;14.90;;
72728;SDS011;60843;52.062;4.508;2022-11-20T14:38:02;33.10;;;12.18;;
72728;SDS011;60843;52.062;4.508;2022-11-20T14:40:35;46.42;;;16.85;;
72728;SDS011;60843;52.062;4.508;2022-11-20T14:43:01;39.80;;;15.10;;
72728;SDS011;60843;52.062;4.508;2022-11-20T14:45:40;30.20;;;12.70;;
72728;SDS011;60843;52.062;4.508;2022-11-20T14:48:05;39.70;;;16.35;;
72728;SDS011;60843;52.062;4.508;2022-11-20T14:50:30;38.60;;;16.53;;
72728;SDS011;60843;52.062;4.508;2022-11-20T14:52:57;35.08;;;14.20;;
72728;SDS011;60843;52.062;4.508;2022-11-20T14:55:28;38.72;;;16.67;;
72728;SDS011;60843;52.062;4.508;2022-11-20T14:58:02;37.47;;;13.63;;
72728;SDS011;60843;52.062;4.508;2022-11-20T15:00:52;35.97;;;14.68;;
72728;SDS011;60843;52.062;4.508;2022-11-20T15:03:36;31.58;;;13.07;;
72728;SDS011;60843;52.062;4.508;2022-11-20T15:06:07;43.05;;;15.75;;
72728;SDS011;60843;52.062;4.508;2022-11-20T15:08:34;39.45;;;15.57;;
72728;SDS011;60843;52.062;4.508;2022-11-20T15:11:00;41.05;;;16.45;;
72728;SDS011;60843;52.062;4.508;2022-11-20T15:16:02;38.47;;;16.58;;
72728;SDS011;60843;52.062;4.508;2022-11-20T15:18:32;23.90;;;10.38;;
72728;SDS011;60843;52.062;4.508;2022-11-20T15:21:03;40.70;;;16.75;;
72728;SDS011;60843;52.062;4.508;2022-11-20T15:23:31;40.15;;;15.15;;
72728;SDS011;60843;52.062;4.508;2022-11-20T15:25:56;42.00;;;17.33;;
72728;SDS011;60843;52.062;4.508;2022-11-20T15:28:39;37.07;;;15.47;;
72728;SDS011;60843;52.062;4.508;2022-11-20T15:31:06;31.13;;;13.65;;
72728;SDS011;60843;52.062;4.508;2022-11-20T15:33:32;42.92;;;17.10;;
72728;SDS011;60843;52.062;4.508;2022-11-20T15:35:58;40.55;;;17.05;;
72728;SDS011;60843;52.062;4.508;2022-11-20T15:38:24;29.80;;;12.65;;
72728;SDS011;60843;52.062;4.508;2022-11-20T15:40:49;39.90;;;16.80;;
72728;SDS011;60843;52.062;4.508;2022-11-20T15:43:15;39.93;;;16.23;;
72728;SDS011;60843;52.062;4.508;2022-11-20T15:45:53;38.93;;;16.83;;
72728;SDS011;60843;52.062;4.508;2022-11-20T15:48:27;40.40;;;17.05;;
72728;SDS011;60843;52.062;4.508;2022-11-20T15:50:58;38.75;;;17.27;;
72728;SDS011;60843;52.062;4.508;2022-11-20T15:53:28;30.52;;;13.23;;
72728;SDS011;60843;52.062;4.508;2022-11-20T15:55:53;38.55;;;17.20;;
72728;SDS011;60843;52.062;4.508;2022-11-20T15:58:19;36.95;;;16.58;;
72728;SDS011;60843;52.062;4.508;2022-11-20T16:00:44;45.75;;;18.13;;
72728;SDS011;60843;52.062;4.508;2022-11-20T16:03:13;41.72;;;17.02;;
72728;SDS011;60843;52.062;4.508;2022-11-20T16:05:39;37.50;;;14.98;;
72728;SDS011;60843;52.062;4.508;2022-11-20T16:08:05;30.58;;;15.20;;
72728;SDS011;60843;52.062;4.508;2022-11-20T16:10:30;40.30;;;15.60;;
72728;SDS011;60843;52.062;4.508;2022-11-20T16:12:56;37.53;;;16.13;;
72728;SDS011;60843;52.062;4.508;2022-11-20T16:15:40;34.05;;;14.80;;
72728;SDS011;60843;52.062;4.508;2022-11-20T16:18:12;33.10;;;14.60;;
72728;SDS011;60843;52.062;4.508;2022-11-20T16:20:39;36.60;;;16.23;;
72728;SDS011;60843;52.062;4.508;2022-11-20T16:23:04;39.75;;;17.42;;